Time;durP1;ratioP1;P1;durP2;ratioP2;P2;SDS_P1;SDS_P2;PMS_P1;PMS_P2;Temp;Humidity;BMP_temperature;BMP_pressure;BME280_temperature;BME280_humidity;BME280_pressure;Samples;Min_cycle;Max_cycle;Signal;HPM_P1;HPM_P2
2022/12/16 00:00:05;;;;;;;104.35;32.42;;;0.70;99.90;;;;;;5088906;28;20093;-62
2022/12/16 00:02:32;;;;;;;100.20;32.63;;;0.70;99.90;;;;;;5087794;28;20044;-62
2022/12/16 00:04:59;;;;;;;104.18;31.67;;;0.70;99.90;;;;;;5090462;28;20180;-62
2022/12/16 00:07:25;;;;;;;103.75;33.83;;;0.70;99.90;;;;;;5079600;28;20781;-62
2022/12/16 00:09:52;;;;;;;94.75;30.33;;;0.70;99.90;;;;;;5087285;28;20152;-62
2022/12/16 00:12:20;;;;;;;99.90;32.47;;;0.70;99.90;;;;;;5086200;28;20040;-62
2022/12/16 00:14:46;;;;;;;98.85;33.90;;;0.70;99.90;;;;;;5089890;28;20097;-61
2022/12/16 00:17:13;;;;;;;113.13;33.47;;;0.80;99.90;;;;;;5080955;28;20378;-62
2022/12/16 00:19:40;;;;;;;116.15;36.00;;;0.80;99.90;;;;;;5090647;28;20089;-62
2022/12/16 00:22:07;;;;;;;121.40;34.17;;;0.80;99.90;;;;;;5089060;28;20040;-62
2022/12/16 00:24:34;;;;;;;115.35;34.42;;;0.80;99.90;;;;;;5087835;28;20032;-61
2022/12/16 00:27:01;;;;;;;112.95;33.75;;;0.70;99.90;;;;;;5080871;28;20075;-61
2022/12/16 00:29:28;;;;;;;119.78;36.33;;;0.70;99.90;;;;;;5090575;28;20040;-62
2022/12/16 00:31:55;;;;;;;124.47;34.33;;;0.70;99.90;;;;;;5088899;28;20036;-62
2022/12/16 00:34:21;;;;;;;101.18;33.58;;;0.70;99.90;;;;;;5088593;28;20040;-61
2022/12/16 00:36:48;;;;;;;236.43;43.60;;;0.70;99.90;;;;;;5076913;28;20049;-62
2022/12/16 00:39:15;;;;;;;75.68;23.58;;;0.70;99.90;;;;;;5085554;28;20063;-62
2022/12/16 00:41:42;;;;;;;111.82;32.38;;;0.70;99.90;;;;;;5086551;28;20531;-62
2022/12/16 00:44:08;;;;;;;108.50;32.47;;;0.70;99.90;;;;;;5089574;28;20051;-62
2022/12/16 00:46:35;;;;;;;123.80;32.88;;;0.70;99.90;;;;;;5079823;28;20051;-62
2022/12/16 00:49:02;;;;;;;122.10;33.00;;;0.70;99.90;;;;;;5070218;28;20118;-62
2022/12/16 00:51:29;;;;;;;107.05;33.85;;;0.70;99.90;;;;;;5077632;28;20051;-62
2022/12/16 00:53:56;;;;;;;74.93;21.83;;;0.80;99.90;;;;;;5114715;28;20116;-62
2022/12/16 00:56:23;;;;;;;111.53;32.40;;;0.80;99.90;;;;;;5097691;28;20133;-62
2022/12/16 00:58:50;;;;;;;93.15;28.33;;;0.80;99.90;;;;;;5109497;28;20151;-61
2022/12/16 01:01:17;;;;;;;97.32;31.02;;;0.80;99.90;;;;;;5089129;28;20441;-62
2022/12/16 01:03:44;;;;;;;;;;;0.80;99.90;;;;;;5073501;28;20043;-62
2022/12/16 01:06:14;;;;;;;86.05;27.33;;;0.80;99.90;;;;;;5075672;28;20014;-62
2022/12/16 01:08:47;;;;;;;93.75;28.45;;;0.80;99.90;;;;;;5114333;28;20449;-62
2022/12/16 01:11:16;;;;;;;79.47;26.33;;;0.80;99.90;;;;;;5084147;28;20413;-62
2022/12/16 01:13:43;;;;;;;89.20;26.50;;;0.80;99.90;;;;;;5073015;28;20048;-62
2022/12/16 01:16:10;;;;;;;82.10;25.45;;;0.80;99.90;;;;;;5098014;28;20067;-61
2022/12/16 01:18:37;;;;;;;62.63;22.48;;;0.80;99.90;;;;;;5114049;28;20427;-62
2022/12/16 01:21:06;;;;;;;48.13;16.45;;;0.80;99.90;;;;;;5080104;28;20097;-61
2022/12/16 01:23:34;;;;;;;75.72;22.60;;;0.90;99.90;;;;;;5090977;28;20120;-62
2022/12/16 01:26:01;;;;;;;72.53;22.83;;;0.90;99.90;;;;;;5086823;28;20040;-62
2022/12/16 01:28:29;;;;;;;61.33;21.65;;;0.80;99.90;;;;;;5089374;28;20044;-62
2022/12/16 01:31:00;;;;;;;58.40;21.23;;;0.80;99.90;;;;;;5106327;28;20070;-62
2022/12/16 01:33:29;;;;;;;68.22;21.25;;;0.80;99.90;;;;;;5112387;28;20453;-61
2022/12/16 01:36:01;;;;;;;63.53;20.30;;;0.80;99.90;;;;;;5053952;28;20055;-62
2022/12/16 01:38:28;;;;;;;60.25;20.13;;;0.80;99.90;;;;;;5076321;28;20086;-62
2022/12/16 01:40:55;;;;;;;61.13;20.10;;;0.80;99.90;;;;;;5105988;28;20063;-62
2022/12/16 01:43:25;;;;;;;61.92;20.73;;;0.80;99.90;;;;;;5091290;28;20071;-62
2022/12/16 01:45:57;;;;;;;55.83;19.95;;;0.80;99.90;;;;;;5093598;28;20089;-62
2022/12/16 01:48:53;;;;;;;58.70;20.15;;;0.80;99.90;;;;;;5087179;28;20048;-62
2022/12/16 01:51:44;;;;;;;55.92;19.98;;;0.90;99.90;;;;;;5087763;28;20083;-62
2022/12/16 01:54:24;;;;;;;62.67;20.15;;;0.80;99.90;;;;;;5096090;28;20062;-62
2022/12/16 01:56:56;;;;;;;59.95;19.90;;;0.80;99.90;;;;;;5113163;28;20031;-62
2022/12/16 01:59:25;;;;;;;60.08;21.60;;;0.90;99.90;;;;;;5081554;28;20090;-62
2022/12/16 02:01:52;;;;;;;68.22;20.30;;;0.90;99.90;;;;;;5071786;28;20033;-61
2022/12/16 02:04:19;;;;;;;67.53;21.80;;;0.80;99.90;;;;;;5099391;28;20062;-61
2022/12/16 02:06:47;;;;;;;72.03;21.58;;;0.90;99.90;;;;;;5112952;28;20063;-62
2022/12/16 02:09:15;;;;;;;65.18;21.77;;;0.90;99.90;;;;;;5077573;28;20040;-62
2022/12/16 02:12:05;;;;;;;77.00;21.30;;;0.80;99.90;;;;;;5077543;28;20048;-62
2022/12/16 02:14:57;;;;;;;54.70;19.73;;;0.90;99.90;;;;;;5086237;28;20479;-61
2022/12/16 02:17:35;;;;;;;54.35;18.50;;;0.90;99.90;;;;;;5092160;28;20431;-62
2022/12/16 02:20:31;;;;;;;54.10;18.73;;;0.80;99.90;;;;;;5092235;28;20051;-61
2022/12/16 02:23:16;;;;;;;52.83;18.17;;;0.90;99.90;;;;;;5082415;28;20036;-62
2022/12/16 02:26:27;;;;;;;50.38;18.08;;;0.90;99.90;;;;;;5094358;28;20040;-62
2022/12/16 02:29:28;;;;;;;55.08;17.75;;;0.90;99.90;;;;;;5086079;28;20055;-62
2022/12/16 02:32:19;;;;;;;49.42;17.33;;;0.90;99.90;;;;;;5096981;28;20045;-62
2022/12/16 02:35:04;;;;;;;53.40;17.13;;;1.00;99.90;;;;;;5078376;28;20040;-61
2022/12/16 02:37:45;;;;;;;51.33;18.38;;;1.00;99.90;;;;;;5084332;28;20443;-62
2022/12/16 02:40:27;;;;;;;42.72;15.80;;;1.00;99.90;;;;;;5092827;28;20044;-62
2022/12/16 02:43:03;;;;;;;50.10;16.60;;;1.00;99.90;;;;;;5086677;28;20065;-62
2022/12/16 02:45:31;;;;;;;49.60;16.45;;;0.90;99.90;;;;;;5084366;28;20039;-62
2022/12/16 02:47:58;;;;;;;54.92;17.75;;;0.90;99.90;;;;;;5096565;28;20044;-62
2022/12/16 02:50:52;;;;;;;46.72;16.67;;;1.00;99.90;;;;;;5093860;28;20071;-62
2022/12/16 02:53:19;;;;;;;44.72;15.43;;;1.00;99.90;;;;;;5076320;28;20041;-62
2022/12/16 02:55:55;;;;;;;43.97;16.25;;;1.00;99.90;;;;;;5100548;28;20041;-62
2022/12/16 02:58:34;;;;;;;47.70;17.10;;;0.90;99.90;;;;;;5071456;28;20036;-62
2022/12/16 03:01:16;;;;;;;45.28;15.70;;;0.90;99.90;;;;;;5070475;28;20123;-62
2022/12/16 03:03:53;;;;;;;50.15;16.85;;;1.00;99.90;;;;;;5077594;28;20646;-61
2022/12/16 03:06:22;;;;;;;51.00;17.57;;;0.90;99.90;;;;;;5082743;28;20133;-62
2022/12/16 03:08:56;;;;;;;49.53;17.15;;;0.90;99.90;;;;;;5087877;28;20083;-61
2022/12/16 03:11:26;;;;;;;49.30;17.70;;;0.90;99.90;;;;;;5103363;28;20079;-62
2022/12/16 03:13:55;;;;;;;52.95;19.33;;;0.90;99.90;;;;;;5111643;28;20071;-61
2022/12/16 03:16:27;;;;;;;49.33;16.65;;;0.90;99.90;;;;;;5076925;28;20124;-62
2022/12/16 03:18:57;;;;;;;54.58;17.83;;;0.90;99.90;;;;;;5071117;28;20512;-62
2022/12/16 03:21:28;;;;;;;51.55;17.35;;;0.90;99.90;;;;;;5079114;28;20566;-62
2022/12/16 03:23:59;;;;;;;46.28;16.45;;;0.90;99.90;;;;;;5053684;28;20142;-61
2022/12/16 03:29:59;;;;;;;51.15;16.40;;;0.90;99.90;;;;;;5098609;28;20490;-61
2022/12/16 03:32:28;;;;;;;48.10;16.58;;;0.90;99.90;;;;;;5088708;28;20404;-62
2022/12/16 03:35:01;;;;;;;48.50;16.58;;;0.90;99.90;;;;;;5085343;28;20047;-62
2022/12/16 03:37:32;;;;;;;45.58;16.25;;;1.00;99.90;;;;;;5098980;28;20093;-62
2022/12/16 03:40:02;;;;;;;48.70;16.45;;;0.90;99.90;;;;;;5097197;28;20113;-62
2022/12/16 03:42:29;;;;;;;46.50;16.92;;;0.90;99.90;;;;;;5103101;28;20105;-61
2022/12/16 03:44:56;;;;;;;;;;;0.90;99.90;;;;;;5090515;28;20087;-61
2022/12/16 03:47:27;;;;;;;44.60;15.57;;;0.90;99.90;;;;;;5091110;28;19959;-62
2022/12/16 03:49:54;;;;;;;38.63;14.43;;;0.90;99.90;;;;;;5090291;28;20543;-61
2022/12/16 03:52:21;;;;;;;47.13;15.98;;;0.90;99.90;;;;;;5082808;28;20676;-62
2022/12/16 03:54:47;;;;;;;45.95;16.17;;;0.90;99.90;;;;;;5090672;28;20048;-61
2022/12/16 03:57:14;;;;;;;32.95;11.27;;;0.90;99.90;;;;;;5088761;28;20552;-62
2022/12/16 03:59:42;;;;;;;50.25;15.90;;;0.90;99.90;;;;;;5090764;28;20145;-62
2022/12/16 04:02:08;;;;;;;;;;;0.90;99.90;;;;;;5090272;28;20066;-63
2022/12/16 04:04:35;;;;;;;41.75;14.98;;;0.90;99.90;;;;;;5090439;28;19924;-64
2022/12/16 04:07:21;;;;;;;36.78;11.80;;;0.90;99.90;;;;;;5087652;28;20143;-63
2022/12/16 04:09:50;;;;;;;42.47;15.50;;;0.80;99.90;;;;;;5103325;28;20067;-63
2022/12/16 04:26:11;;;;;;;47.42;16.75;;;1.00;99.90;;;;;;5071221;28;20188;-63
2022/12/16 04:28:37;;;;;;;43.38;15.15;;;1.00;99.90;;;;;;5087889;28;20107;-63
2022/12/16 04:31:04;;;;;;;33.83;12.52;;;1.00;99.90;;;;;;5095146;28;20110;-63
